Time;durP1;ratioP1;P1;durP2;ratioP2;P2;SDS_P1;SDS_P2;PMS_P1;PMS_P2;Temp;Humidity;BMP_temperature;BMP_pressure;BME280_temperature;BME280_humidity;BME280_pressure;Samples;Min_cycle;Max_cycle;Signal;HPM_P1;HPM_P2
2021/04/05 00:00:20;;;;;;;1999.90;999.90;;;;;;;5.66;100.00;-18060.97;5039951;28;20196;-28
2021/04/05 00:03:06;;;;;;;1999.90;999.90;;;;;;;5.82;100.00;-18065.38;5042220;28;20272;-29
2021/04/05 00:05:51;;;;;;;1999.90;999.90;;;;;;;5.84;100.00;-18065.78;5041566;28;20616;-29
2021/04/05 00:08:41;;;;;;;1999.90;999.90;;;;;;;6.04;100.00;-18071.03;5040232;28;20237;-28
2021/04/05 00:11:32;;;;;;;1999.90;999.90;;;;;;;5.91;100.00;-18067.66;5037581;28;20197;-30
2021/04/05 00:14:17;;;;;;;1999.90;999.90;;;;;;;5.80;100.00;-18064.84;5040274;28;20237;-29
2021/04/05 00:17:03;;;;;;;1999.90;999.90;;;;;;;5.85;100.00;-18066.19;5037732;28;20229;-28
2021/04/05 00:19:49;;;;;;;1999.90;999.90;;;;;;;5.99;100.00;-18069.81;5037150;28;20252;-28
2021/04/05 00:22:37;;;;;;;1999.90;999.90;;;;;;;5.84;100.00;-18065.91;5037727;28;20197;-28
2021/04/05 00:25:26;;;;;;;1999.90;999.90;;;;;;;6.10;100.00;-18072.63;5047505;28;20208;-28
2021/04/05 00:28:12;;;;;;;1999.90;999.90;;;;;;;5.81;100.00;-18065.13;5038095;28;20209;-30
2021/04/05 00:30:58;;;;;;;1999.90;999.90;;;;;;;6.10;100.00;-18072.63;5040413;28;20197;-29
2021/04/05 00:33:43;;;;;;;1999.90;999.90;;;;;;;5.90;100.00;-18067.28;5038290;28;20197;-29
2021/04/05 00:36:30;;;;;;;1999.90;999.90;;;;;;;6.03;100.00;-18070.88;5037255;28;20355;-29
2021/04/05 00:39:15;;;;;;;1999.90;999.90;;;;;;;6.09;100.00;-18072.38;5036965;28;20332;-29
2021/04/05 00:42:03;;;;;;;1999.90;999.90;;;;;;;6.08;100.00;-18072.09;5037946;28;20201;-29
2021/04/05 00:44:49;;;;;;;1999.90;999.90;;;;;;;6.15;100.00;-18073.97;5037864;28;20197;-29
2021/04/05 00:47:39;;;;;;;1999.90;999.90;;;;;;;5.96;100.00;-18068.88;5037406;28;20273;-29
2021/04/05 00:50:29;;;;;;;1999.90;999.90;;;;;;;6.07;100.00;-18071.84;5047340;28;20201;-28
2021/04/05 00:53:18;;;;;;;1999.90;999.90;;;;;;;5.88;100.00;-18067.00;5058262;28;20208;-29
2021/04/05 00:56:05;;;;;;;1999.90;999.90;;;;;;;6.05;100.00;-18071.44;5057304;28;20371;-28
2021/04/05 00:58:52;;;;;;;1999.90;999.90;;;;;;;6.02;100.00;-18070.50;5056703;28;20351;-29
2021/04/05 01:01:38;;;;;;;1999.90;999.90;;;;;;;6.22;100.00;-18075.84;5059485;28;20267;-28
2021/04/05 01:04:24;;;;;;;1999.90;999.90;;;;;;;5.91;100.00;-18067.53;5061528;28;20204;-29
2021/04/05 01:07:10;;;;;;;1999.90;999.90;;;;;;;6.03;100.00;-18070.75;5066118;28;20201;-28
2021/04/05 01:09:56;;;;;;;1999.90;999.90;;;;;;;5.98;100.00;-18069.56;5060891;28;20205;-28
2021/04/05 01:12:42;;;;;;;1999.90;999.90;;;;;;;6.11;100.00;-18072.91;5061482;28;20204;-29
2021/04/05 01:15:32;;;;;;;1999.90;999.90;;;;;;;6.15;100.00;-18074.13;5060468;28;20224;-28
2021/04/05 01:18:18;;;;;;;1999.90;999.90;;;;;;;6.13;100.00;-18073.44;5060312;28;20232;-28
2021/04/05 01:21:06;;;;;;;1999.90;999.90;;;;;;;6.06;100.00;-18071.69;5064736;28;20619;-29
2021/04/05 01:23:52;;;;;;;1999.90;999.90;;;;;;;6.08;100.00;-18072.22;5060733;28;20542;-29
2021/04/05 01:26:38;;;;;;;1999.90;999.90;;;;;;;6.23;100.00;-18076.13;5059803;28;20188;-29
2021/04/05 01:29:24;;;;;;;1999.90;999.90;;;;;;;6.09;100.00;-18072.50;5059426;28;20199;-29
2021/04/05 01:32:10;;;;;;;1999.90;999.90;;;;;;;5.88;100.00;-18066.84;5063371;28;20722;-29
2021/04/05 01:34:55;;;;;;;1999.90;999.90;;;;;;;6.27;100.00;-18077.06;5061131;28;20612;-28
2021/04/05 01:37:41;;;;;;;1999.90;999.90;;;;;;;6.27;100.00;-18077.06;5063960;28;20246;-29
2021/04/05 01:40:28;;;;;;;1999.90;999.90;;;;;;;6.13;100.00;-18073.56;5062354;28;20259;-29
2021/04/05 01:43:14;;;;;;;1999.90;999.90;;;;;;;6.13;100.00;-18073.44;5060240;28;20200;-29
2021/04/05 01:46:01;;;;;;;1999.90;999.90;;;;;;;6.15;100.00;-18073.97;5059380;28;20604;-29
2021/04/05 01:48:47;;;;;;;1999.90;999.90;;;;;;;6.33;100.00;-18078.69;5060612;28;20200;-29
2021/04/05 01:51:32;;;;;;;1999.90;999.90;;;;;;;6.37;100.00;-18079.75;5060479;28;20268;-29
2021/04/05 01:54:17;;;;;;;1999.90;999.90;;;;;;;6.03;100.00;-18070.88;5061180;28;20204;-29
2021/04/05 01:57:07;;;;;;;1999.90;999.90;;;;;;;6.14;100.00;-18073.84;5062212;28;20306;-29
2021/04/05 01:59:53;;;;;;;1999.90;999.90;;;;;;;6.38;100.00;-18080.16;5059245;28;20212;-29
2021/04/05 02:02:39;;;;;;;1999.90;999.90;;;;;;;6.26;100.00;-18076.78;5059357;28;20204;-29
2021/04/05 02:05:28;;;;;;;1999.90;999.90;;;;;;;6.25;100.00;-18076.66;5058870;28;20477;-29
2021/04/05 02:08:23;;;;;;;1999.90;999.90;;;;;;;6.31;100.00;-18078.28;5059954;28;20235;-29
2021/04/05 02:11:12;;;;;;;1999.90;999.90;;;;;;;6.30;100.00;-18077.88;5061429;28;20199;-29
2021/04/05 02:14:00;;;;;;;1999.90;999.90;;;;;;;6.18;100.00;-18074.78;5059807;28;20200;-29
2021/04/05 02:16:45;;;;;;;1999.90;999.90;;;;;;;6.17;100.00;-18074.66;5060641;28;20220;-29
2021/04/05 02:19:33;;;;;;;1999.90;999.90;;;;;;;6.21;100.00;-18075.59;5058921;28;20370;-28
2021/04/05 02:22:19;;;;;;;1999.90;999.90;;;;;;;6.35;100.00;-18079.22;5059957;28;20332;-29
2021/04/05 02:25:08;;;;;;;1999.90;999.90;;;;;;;6.38;100.00;-18080.16;5065101;28;20488;-30
2021/04/05 02:27:54;;;;;;;1999.90;999.90;;;;;;;6.34;100.00;-18078.94;5060602;28;20596;-29
2021/04/05 02:30:42;;;;;;;1999.90;999.90;;;;;;;6.56;100.00;-18084.84;5058817;28;20488;-29
2021/04/05 02:33:28;;;;;;;1999.90;999.90;;;;;;;6.36;100.00;-18079.47;5058707;28;20200;-28
2021/04/05 02:36:16;;;;;;;1999.90;999.90;;;;;;;6.48;100.00;-18082.84;5061265;28;20224;-29
2021/04/05 02:39:06;;;;;;;1999.90;999.90;;;;;;;6.61;100.00;-18086.03;5059593;28;20603;-28
2021/04/05 02:41:54;;;;;;;1999.90;999.90;;;;;;;6.65;100.00;-18087.25;5058409;28;20299;-29
2021/04/05 02:44:39;;;;;;;1999.90;999.90;;;;;;;6.61;100.00;-18086.19;5059530;28;20196;-29
2021/04/05 02:47:26;;;;;;;1999.90;999.90;;;;;;;6.77;100.00;-18090.47;5058716;28;20594;-28
2021/04/05 02:50:13;;;;;;;1999.90;999.90;;;;;;;6.65;100.00;-18087.25;5058073;28;20199;-29
2021/04/05 02:53:01;;;;;;;1999.90;999.90;;;;;;;6.83;100.00;-18091.94;5061099;28;20200;-29
2021/04/05 02:55:47;;;;;;;1999.90;999.90;;;;;;;6.70;100.00;-18088.47;5059301;28;20366;-29
2021/04/05 02:58:39;;;;;;;1999.90;999.90;;;;;;;6.69;100.00;-18088.19;5060651;28;20339;-29
2021/04/05 03:01:28;;;;;;;1999.90;999.90;;;;;;;6.86;100.00;-18092.88;5058420;28;20204;-28
2021/04/05 03:04:16;;;;;;;1999.90;999.90;;;;;;;6.97;100.00;-18095.56;5058802;28;20200;-29
2021/04/05 03:07:03;;;;;;;1999.90;999.90;;;;;;;6.90;100.00;-18093.81;5058025;28;20255;-29
2021/04/05 03:09:48;;;;;;;1999.90;999.90;;;;;;;6.77;100.00;-18090.34;5058302;28;20199;-28
2021/04/05 03:12:36;;;;;;;1999.90;999.90;;;;;;;6.88;100.00;-18093.28;5058666;28;20622;-29
2021/04/05 03:15:23;;;;;;;1999.90;999.90;;;;;;;6.91;100.00;-18094.09;5060130;28;20769;-29
2021/04/05 03:18:11;;;;;;;1999.90;999.90;;;;;;;6.96;100.00;-18095.44;5057626;28;20197;-28
2021/04/05 03:20:58;;;;;;;1999.90;999.90;;;;;;;6.88;100.00;-18093.44;5057890;28;20200;-28
2021/04/05 03:23:45;;;;;;;1999.90;999.90;;;;;;;6.93;100.00;-18094.63;5057907;28;20196;-29
2021/04/05 03:26:31;;;;;;;1999.90;999.90;;;;;;;6.65;100.00;-18087.13;5057604;28;20201;-29
2021/04/05 03:29:18;;;;;;;1999.90;999.90;;;;;;;6.77;100.00;-18090.47;5059936;28;20201;-29
2021/04/05 03:32:06;;;;;;;1999.90;999.90;;;;;;;6.74;100.00;-18089.66;5060743;28;20204;-28
2021/04/05 03:34:56;;;;;;;1999.90;999.90;;;;;;;6.85;100.00;-18092.63;5064481;28;20335;-29
2021/04/05 03:37:53;;;;;;;1999.90;999.90;;;;;;;6.81;100.00;-18091.41;5063459;28;20208;-29
2021/04/05 03:40:45;;;;;;;1999.90;999.90;;;;;;;6.88;100.00;-18093.44;5057963;28;20320;-29
2021/04/05 03:43:37;;;;;;;1999.90;999.90;;;;;;;6.92;100.00;-18094.38;5058633;28;20216;-28
2021/04/05 03:46:28;;;;;;;1999.90;999.90;;;;;;;6.91;100.00;-18094.09;5059701;28;20197;-29
2021/04/05 03:49:24;;;;;;;1999.90;999.90;;;;;;;7.06;100.00;-18098.13;5057788;28;20196;-29
2021/04/05 03:52:19;;;;;;;1999.90;999.90;;;;;;;7.02;100.00;-18097.03;5063115;28;20197;-29
2021/04/05 03:55:11;;;;;;;1999.90;999.90;;;;;;;6.81;100.00;-18091.41;5069063;28;20188;-29
2021/04/05 03:57:59;;;;;;;1999.90;999.90;;;;;;;7.02;100.00;-18097.03;5057998;28;20196;-29
2021/04/05 04:00:46;;;;;;;1999.90;999.90;;;;;;;6.98;100.00;-18095.97;5059073;28;20204;-29
2021/04/05 04:03:43;;;;;;;1999.90;999.90;;;;;;;7.06;100.00;-18098.13;5057675;28;20196;-29
2021/04/05 04:06:32;;;;;;;1999.90;999.90;;;;;;;7.01;100.00;-18096.78;5057279;28;20196;-29
2021/04/05 04:09:21;;;;;;;1999.90;999.90;;;;;;;7.12;100.00;-18099.72;5057244;28;20200;-29
2021/04/05 04:12:12;;;;;;;1999.90;999.90;;;;;;;7.16;100.00;-18100.81;5057207;28;20611;-28
2021/04/05 04:15:00;;;;;;;1999.90;999.90;;;;;;;7.21;100.00;-18102.13;5057585;28;20696;-29
2021/04/05 04:17:47;;;;;;;1999.90;999.90;;;;;;;7.06;100.00;-18098.13;5060349;28;20266;-28
2021/04/05 04:20:33;;;;;;;1999.90;999.90;;;;;;;7.13;100.00;-18100.00;5057624;28;20616;-28
2021/04/05 04:23:20;;;;;;;1999.90;999.90;;;;;;;7.14;100.00;-18100.13;5057191;28;20488;-28
2021/04/05 04:26:06;;;;;;;1999.90;999.90;;;;;;;7.17;100.00;-18101.06;5057180;28;20193;-29
2021/04/05 04:28:53;;;;;;;1999.90;999.90;;;;;;;7.30;100.00;-18104.28;5057005;28;20205;-29
2021/04/05 04:31:39;;;;;;;1999.90;999.90;;;;;;;7.16;100.00;-18100.81;5056859;28;20201;-29
2021/04/05 04:34:24;;;;;;;1999.90;999.90;;;;;;;7.15;100.00;-18100.41;5057491;28;20354;-28
2021/04/05 04:37:14;;;;;;;1999.90;999.90;;;;;;;7.27;100.00;-18103.63;5061122;28;20216;-29
2021/04/05 04:40:00;;;;;;;1999.90;999.90;;;;;;;7.23;100.00;-18102.69;5061251;28;20209;-29
2021/04/05 04:42:45;;;;;;;1999.90;999.90;;;;;;;7.13;100.00;-18099.88;5067479;28;20244;-29
2021/04/05 04:45:33;;;;;;;1999.90;999.90;;;;;;;7.14;100.00;-18100.13;5060585;28;20211;-28
2021/04/05 04:48:18;;;;;;;1999.90;999.90;;;;;;;7.33;100.00;-18105.22;5060637;28;20300;-28
2021/04/05 04:51:04;;;;;;;1999.90;999.90;;;;;;;7.24;100.00;-18102.94;5061039;28;20203;-28
2021/04/05 04:53:50;;;;;;;1999.90;999.90;;;;;;;7.21;100.00;-18102.13;5060275;28;20197;-29
2021/04/05 04:56:36;;;;;;;1999.90;999.90;;;;;;;7.02;100.00;-18096.91;5060037;28;20290;-28
2021/04/05 04:59:24;;;;;;;1999.90;999.90;;;;;;;7.24;100.00;-18102.94;5061832;28;20259;-29
2021/04/05 05:02:11;;;;;;;1999.90;999.90;;;;;;;7.19;100.00;-18101.47;5061780;28;20227;-29
2021/04/05 05:04:57;;;;;;;1999.90;999.90;;;;;;;7.28;100.00;-18103.75;5061599;28;20379;-29
2021/04/05 05:07:43;;;;;;;1999.90;999.90;;;;;;;7.35;100.00;-18105.63;5060910;28;20255;-29
2021/04/05 05:10:29;;;;;;;1999.90;999.90;;;;;;;7.26;100.00;-18103.34;5060124;28;20668;-29
2021/04/05 05:13:15;;;;;;;1999.90;999.90;;;;;;;7.24;100.00;-18102.81;5060585;28;20216;-29
2021/04/05 05:16:04;;;;;;;1999.90;999.90;;;;;;;7.32;100.00;-18104.81;5064222;28;20224;-30
2021/04/05 05:18:52;;;;;;;1999.90;999.90;;;;;;;7.44;100.00;-18108.16;5059782;28;20232;-29
2021/04/05 05:21:45;;;;;;;1999.90;999.90;;;;;;;7.37;100.00;-18106.16;5060631;28;20658;-30
2021/04/05 05:24:33;;;;;;;1999.90;999.90;;;;;;;7.38;100.00;-18106.56;5060569;28;20201;-29
2021/04/05 05:27:21;;;;;;;1999.90;999.90;;;;;;;7.34;100.00;-18105.34;5060808;28;20473;-29
2021/04/05 05:30:09;;;;;;;1999.90;999.90;;;;;;;7.30;100.00;-18104.28;5060816;28;20307;-29
2021/04/05 05:32:55;;;;;;;1999.90;999.90;;;;;;;7.43;100.00;-18107.78;5062895;28;20200;-29
2021/04/05 05:35:42;;;;;;;1999.90;999.90;;;;;;;7.53;100.00;-18110.44;5059904;28;20201;-29
2021/04/05 05:38:28;;;;;;;1999.90;999.90;;;;;;;7.34;100.00;-18105.50;5060922;28;20496;-29
2021/04/05 05:41:29;;;;;;;1999.90;999.90;;;;;;;7.36;100.00;-18106.03;5060457;28;20207;-30
2021/04/05 05:44:19;;;;;;;1999.90;999.90;;;;;;;7.15;100.00;-18100.53;5059992;28;20485;-29
2021/04/05 05:47:10;;;;;;;1999.90;999.90;;;;;;;7.26;100.00;-18103.47;5059156;28;20204;-30
2021/04/05 05:50:12;;;;;;;1999.90;999.90;;;;;;;7.17;100.00;-18101.06;5061512;28;20383;-29
2021/04/05 05:53:14;;;;;;;1999.90;999.90;;;;;;;7.15;100.00;-18100.41;5060366;28;20403;-29
2021/04/05 05:56:20;;;;;;;1999.90;999.90;;;;;;;7.32;100.00;-18104.81;5060562;28;20400;-29
2021/04/05 05:59:12;;;;;;;1999.90;999.90;;;;;;;7.34;100.00;-18105.50;5063691;28;20212;-29
2021/04/05 06:02:05;;;;;;;1999.90;999.90;;;;;;;7.51;100.00;-18109.91;5065169;28;20306;-29
2021/04/05 06:05:06;;;;;;;1999.90;999.90;;;;;;;7.35;100.00;-18105.63;5059256;28;20219;-29
2021/04/05 06:08:11;;;;;;;1999.90;999.90;;;;;;;7.45;100.00;-18108.44;5059587;28;20248;-29
2021/04/05 06:11:05;;;;;;;1999.90;999.90;;;;;;;7.37;100.00;-18106.16;5059758;28;20600;-29
2021/04/05 06:14:01;;;;;;;1999.90;999.90;;;;;;;7.25;100.00;-18103.22;5059859;28;20663;-29
2021/04/05 06:16:59;;;;;;;1999.90;999.90;;;;;;;7.23;100.00;-18102.53;5059961;28;20201;-29
2021/04/05 06:19:50;;;;;;;1999.90;999.90;;;;;;;7.14;100.00;-18100.25;5064214;28;20651;-29
2021/04/05 06:22:56;;;;;;;1999.90;999.90;;;;;;;7.26;100.00;-18103.34;5058575;28;20201;-29
2021/04/05 06:25:56;;;;;;;1999.90;999.90;;;;;;;7.23;100.00;-18102.53;5058719;28;20201;-29
2021/04/05 06:28:57;;;;;;;1999.90;999.90;;;;;;;7.30;100.00;-18104.28;5059355;28;20207;-29
2021/04/05 06:31:50;;;;;;;1999.90;999.90;;;;;;;7.37;100.00;-18106.16;5059216;28;20196;-29
2021/04/05 06:34:52;;;;;;;1999.90;999.90;;;;;;;7.15;100.00;-18100.41;5058720;28;20201;-29
2021/04/05 06:37:44;;;;;;;1999.90;999.90;;;;;;;7.10;100.00;-18099.19;5064467;28;20200;-29
2021/04/05 06:40:32;;;;;;;1999.90;999.90;;;;;;;7.39;100.00;-18106.84;5058866;28;20200;-29
2021/04/05 06:43:45;;;;;;;1999.90;999.90;;;;;;;7.21;100.00;-18102.00;5058956;28;20593;-29
2021/04/05 06:46:56;;;;;;;1999.90;999.90;;;;;;;7.36;100.00;-18106.03;5058707;28;20229;-30
2021/04/05 06:50:03;;;;;;;1999.90;999.90;;;;;;;7.22;100.00;-18102.28;5058884;28;20202;-29
2021/04/05 06:53:14;;;;;;;1999.90;999.90;;;;;;;7.06;100.00;-18098.13;5058876;28;20188;-29
2021/04/05 06:56:08;;;;;;;1999.90;999.90;;;;;;;7.35;100.00;-18105.63;5058848;28;20308;-29
2021/04/05 06:59:17;;;;;;;1999.90;999.90;;;;;;;7.30;100.00;-18104.28;5039897;28;20205;-31
2021/04/05 07:02:33;;;;;;;1999.90;999.90;;;;;;;7.39;100.00;-18106.84;5038726;28;20243;-29
2021/04/05 07:05:35;;;;;;;1999.90;999.90;;;;;;;7.43;100.00;-18107.91;5038079;28;20269;-29
2021/04/05 07:08:26;;;;;;;1999.90;999.90;;;;;;;7.07;100.00;-18098.25;5038925;28;20201;-29
2021/04/05 07:11:16;;;;;;;1999.90;999.90;;;;;;;7.06;100.00;-18097.97;5038159;28;20221;-29
2021/04/05 07:14:14;;;;;;;1999.90;999.90;;;;;;;6.54;100.00;-18084.44;5038104;28;20632;-28
2021/04/05 07:17:13;;;;;;;1999.90;999.90;;;;;;;6.02;100.00;-18070.63;5039312;28;20272;-28
2021/04/05 07:20:01;;;;;;;1999.90;999.90;;;;;;;5.44;100.00;-18055.31;5040769;28;20245;-28
2021/04/05 07:23:23;;;;;;;1999.90;999.90;;;;;;;5.16;100.00;-18047.94;5038610;28;20193;-29
2021/04/05 07:26:21;;;;;;;1999.90;999.90;;;;;;;5.15;100.00;-18047.66;5038352;28;20314;-28
2021/04/05 07:29:13;;;;;;;1999.90;999.90;;;;;;;5.40;100.00;-18054.09;5038651;28;20317;-28
2021/04/05 07:32:06;;;;;;;1999.90;999.90;;;;;;;5.13;100.00;-18047.00;5038143;28;20576;-28
2021/04/05 07:35:01;;;;;;;1999.90;999.90;;;;;;;5.25;100.00;-18050.09;5038313;28;20196;-28
2021/04/05 07:37:53;;;;;;;1999.90;999.90;;;;;;;5.11;100.00;-18046.47;5038739;28;20197;-29
2021/04/05 07:40:50;;;;;;;1999.90;999.90;;;;;;;5.00;100.00;-18043.50;5038936;28;20205;-28
2021/04/05 07:44:16;;;;;;;1999.90;999.90;;;;;;;5.13;100.00;-18047.13;5039155;28;20196;-28
2021/04/05 07:47:16;;;;;;;1999.90;999.90;;;;;;;5.11;100.00;-18046.59;5039159;28;20636;-28
2021/04/05 07:50:10;;;;;;;1999.90;999.90;;;;;;;5.05;100.00;-18044.97;5037494;28;20205;-28
2021/04/05 07:52:59;;;;;;;1999.90;999.90;;;;;;;5.11;100.00;-18046.47;5037673;28;20205;-29
2021/04/05 07:55:48;;;;;;;1999.90;999.90;;;;;;;4.75;100.00;-18036.94;5037867;28;20224;-28
2021/04/05 07:59:05;;;;;;;1999.90;999.90;;;;;;;5.02;100.00;-17972.66;5038809;28;20259;-28
2021/04/05 08:02:00;;;;;;;1999.90;999.90;;;;;;;4.82;100.00;-17952.53;5039291;28;20324;-28
2021/04/05 08:05:14;;;;;;;1999.90;999.90;;;;;;;4.74;100.00;-17962.81;5039825;28;20215;-28
2021/04/05 08:08:07;;;;;;;1999.90;999.90;;;;;;;4.94;100.00;-17652.03;5044801;28;20667;-29
2021/04/05 08:11:04;;;;;;;1999.90;999.90;;;;;;;4.92;100.00;-18041.34;5037530;28;20307;-28
2021/04/05 08:14:04;;;;;;;1999.90;999.90;;;;;;;4.94;100.00;-18041.91;5039395;28;20201;-29
2021/04/05 08:17:05;;;;;;;1999.90;999.90;;;;;;;4.72;100.00;-18036.13;5037857;28;20204;-28
2021/04/05 08:19:58;;;;;;;1999.90;999.90;;;;;;;4.45;100.00;-18029.13;5038749;28;20240;-28
2021/04/05 08:22:51;;;;;;;1999.90;999.90;;;;;;;5.12;100.00;-18046.72;5038327;28;20201;-28
2021/04/05 08:25:54;;;;;;;1999.90;999.90;;;;;;;4.87;100.00;-18040.16;5038842;28;20201;-28
2021/04/05 08:28:46;;;;;;;1999.90;999.90;;;;;;;5.18;100.00;-18048.47;5039631;28;20201;-29
2021/04/05 08:31:53;;;;;;;1999.90;999.90;;;;;;;4.75;100.00;-18036.94;5040337;28;20213;-28
2021/04/05 08:35:05;;;;;;;1999.90;999.90;;;;;;;4.90;100.00;-17810.16;5039276;28;20200;-28
2021/04/05 08:38:15;;;;;;;1999.90;999.90;;;;;;;4.88;100.00;-18025.97;5039727;28;20196;-30
2021/04/05 08:41:25;;;;;;;1999.90;999.90;;;;;;;4.94;100.00;-18042.03;5038767;28;20497;-29
2021/04/05 08:44:26;;;;;;;1999.90;999.90;;;;;;;4.54;100.00;-18031.41;5037617;28;20359;-28
2021/04/05 08:47:17;;;;;;;1999.90;999.90;;;;;;;4.58;100.00;-18032.34;5037429;28;20612;-28
2021/04/05 08:50:09;;;;;;;1999.90;999.90;;;;;;;4.53;100.00;-18031.00;5038380;28;20206;-28
2021/04/05 08:52:57;;;;;;;1999.90;999.90;;;;;;;4.98;100.00;-18043.09;5038351;28;20259;-28
2021/04/05 08:55:44;;;;;;;1999.90;999.90;;;;;;;4.62;100.00;-18033.56;5040018;28;20201;-28
2021/04/05 08:58:39;;;;;;;1999.90;999.90;;;;;;;4.02;100.00;-18017.72;5037684;28;20220;-28
2021/04/05 09:01:32;;;;;;;1999.90;999.90;;;;;;;3.79;100.00;-18011.53;5036911;28;20604;-28
2021/04/05 09:04:23;;;;;;;1999.90;999.90;;;;;;;3.89;100.00;-18014.22;5038984;28;20838;-28
2021/04/05 09:07:21;;;;;;;1999.90;999.90;;;;;;;4.12;100.00;-18020.28;5037460;28;20943;-29
2021/04/05 09:10:09;;;;;;;1999.90;999.90;;;;;;;3.98;100.00;-18016.63;5037112;28;20730;-28
2021/04/05 09:13:00;;;;;;;1999.90;999.90;;;;;;;4.22;100.00;-18022.81;5039301;28;20447;-29
2021/04/05 09:16:16;;;;;;;1999.90;999.90;;;;;;;4.31;100.00;-18025.25;5037473;28;20463;-28
2021/04/05 09:19:33;;;;;;;1999.90;999.90;;;;;;;4.91;100.00;-18041.22;5037825;28;20284;-29
2021/04/05 09:22:52;;;;;;;1999.90;999.90;;;;;;;4.95;100.00;-18042.16;5039141;28;20594;-28
2021/04/05 09:25:56;;;;;;;1999.90;999.90;;;;;;;5.05;100.00;-18044.97;5042212;28;20625;-28
2021/04/05 09:29:11;;;;;;;1999.90;999.90;;;;;;;5.20;100.00;-18049.00;5040786;28;20205;-29
2021/04/05 09:32:37;;;;;;;1999.90;999.90;;;;;;;5.08;100.00;-18045.66;5022394;28;20260;-28
2021/04/05 09:35:34;;;;;;;1999.90;999.90;;;;;;;4.58;100.00;-18032.34;5040445;28;20205;-29
2021/04/05 09:38:40;;;;;;;1999.90;999.90;;;;;;;5.06;100.00;-18045.25;5042765;28;20197;-28
2021/04/05 09:41:46;;;;;;;1999.90;999.90;;;;;;;4.89;100.00;-18040.56;5047280;28;20204;-28
2021/04/05 09:45:00;;;;;;;1999.90;999.90;;;;;;;5.09;100.00;-18045.91;5039718;28;20486;-28
2021/04/05 09:48:33;;;;;;;1999.90;999.90;;;;;;;5.65;100.00;-18060.69;5040586;28;20571;-29
2021/04/05 09:51:31;;;;;;;1999.90;999.90;;;;;;;5.46;100.00;-18055.84;5023623;28;20201;-28
2021/04/05 09:54:32;;;;;;;1999.90;999.90;;;;;;;4.92;100.00;-18041.34;5043449;28;20201;-28
2021/04/05 09:57:25;;;;;;;1999.90;999.90;;;;;;;4.90;100.00;-18040.81;5040669;28;20289;-28
2021/04/05 10:00:13;;;;;;;1999.90;999.90;;;;;;;5.00;100.00;-18043.63;5040088;28;20481;-29
2021/04/05 10:03:04;;;;;;;1999.90;999.90;;;;;;;4.59;100.00;-18032.75;5058761;28;20620;-28
2021/04/05 10:05:55;;;;;;;1999.90;999.90;;;;;;;4.74;100.00;-18036.66;5062817;28;20193;-28
2021/04/05 10:08:43;;;;;;;1999.90;999.90;;;;;;;5.07;100.00;-18045.53;5060484;28;20259;-29
2021/04/05 10:11:36;;;;;;;1999.90;999.90;;;;;;;5.07;100.00;-18045.38;5063169;28;20228;-28
2021/04/05 10:14:23;;;;;;;1999.90;999.90;;;;;;;4.76;100.00;-18037.19;5062183;28;20196;-28
2021/04/05 10:17:10;;;;;;;1999.90;999.90;;;;;;;4.75;100.00;-18037.06;5060011;28;20261;-28
2021/04/05 10:20:01;;;;;;;1999.90;999.90;;;;;;;4.15;100.00;-18021.22;5061397;28;20231;-28
2021/04/05 10:22:48;;;;;;;1999.90;999.90;;;;;;;4.19;100.00;-18022.16;5061501;28;20255;-28
2021/04/05 10:25:35;;;;;;;1999.90;999.90;;;;;;;3.30;100.00;-17998.50;5060283;28;20255;-29
2021/04/05 10:28:28;;;;;;;1999.90;999.90;;;;;;;3.48;100.00;-18003.34;5060767;28;20561;-28
2021/04/05 10:31:18;;;;;;;1999.90;999.90;;;;;;;3.86;100.00;-18013.28;5061879;28;20466;-29
2021/04/05 10:34:07;;;;;;;1999.90;999.90;;;;;;;4.24;100.00;-18023.34;5060330;28;20478;-28
2021/04/05 10:36:59;;;;;;;1999.90;999.90;;;;;;;4.34;100.00;-18026.19;5060902;28;20447;-29
2021/04/05 10:39:55;;;;;;;1999.90;999.90;;;;;;;3.32;100.00;-17999.16;5060034;28;20196;-29
2021/04/05 10:42:48;;;;;;;1999.90;999.90;;;;;;;1.85;100.00;41450.38;5059774;28;20623;-29
2021/04/05 10:45:39;;;;;;;1999.90;999.90;;;;;;;1.76;100.00;61967.94;5059758;28;20830;-29
2021/04/05 10:48:36;;;;;;;1999.90;999.90;;;;;;;1.84;100.00;91245.34;5059893;28;20487;-29
2021/04/05 10:51:27;;;;;;;1999.90;999.90;;;;;;;2.08;100.00;111533.38;5059857;28;20475;-29
2021/04/05 10:54:20;;;;;;;1999.90;999.90;;;;;;;2.76;100.00;111989.84;5061019;28;20463;-29
2021/04/05 10:57:10;;;;;;;1999.90;999.90;;;;;;;2.93;100.00;70113.88;5059610;28;20443;-30
2021/04/05 11:00:07;;;;;;;1999.90;999.90;;;;;;;3.23;100.00;13122.63;5059691;28;20737;-29
2021/04/05 11:03:04;;;;;;;1999.90;999.90;;;;;;;3.39;100.00;-17770.81;5060415;28;20497;-29
2021/04/05 11:05:51;;;;;;;1999.90;999.90;;;;;;;3.82;100.00;-18012.34;5060744;28;20443;-30
2021/04/05 11:08:40;;;;;;;1999.90;999.90;;;;;;;3.42;100.00;-18001.72;5061809;28;20567;-30
2021/04/05 11:11:31;;;;;;;1999.90;999.90;;;;;;;3.56;100.00;-18005.50;5059120;28;20509;-29
2021/04/05 11:14:23;;;;;;;1999.90;999.90;;;;;;;3.84;100.00;-18012.75;5059453;28;20689;-30
2021/04/05 11:17:12;;;;;;;1999.90;999.90;;;;;;;3.76;100.00;-18010.72;5059476;28;20446;-29
2021/04/05 11:20:01;;;;;;;1999.90;999.90;;;;;;;4.16;100.00;-18021.34;5059749;28;20922;-30
2021/04/05 11:22:56;;;;;;;1999.90;999.90;;;;;;;4.27;100.00;-18024.28;5060628;28;20446;-30
2021/04/05 11:25:43;;;;;;;1999.90;999.90;;;;;;;4.22;100.00;-18022.94;5061830;28;20541;-30
2021/04/05 11:28:32;;;;;;;1999.90;999.90;;;;;;;4.13;100.00;-18020.66;5059152;28;20220;-30
2021/04/05 11:31:20;;;;;;;1999.90;999.90;;;;;;;4.40;100.00;-18027.78;5058677;28;20590;-30
2021/04/05 11:34:07;;;;;;;1999.90;999.90;;;;;;;4.33;100.00;-18025.78;5060377;28;20200;-30
2021/04/05 11:36:56;;;;;;;1999.90;999.90;;;;;;;4.49;100.00;-18030.22;5063863;28;20203;-29
2021/04/05 11:39:50;;;;;;;1999.90;999.90;;;;;;;4.89;100.00;-18040.69;5052677;28;20264;-30
2021/04/05 11:42:43;;;;;;;1999.90;999.90;;;;;;;4.84;100.00;-18039.34;5038442;28;20247;-29
2021/04/05 11:45:46;;;;;;;1999.90;999.90;;;;;;;4.72;100.00;-18036.25;5038196;28;20201;-29
2021/04/05 11:48:33;;;;;;;1999.90;999.90;;;;;;;5.36;100.00;-18053.16;5038097;28;20244;-29
2021/04/05 11:51:24;;;;;;;1999.90;999.90;;;;;;;4.98;91.38;-18042.97;5044172;28;20291;-29
2021/04/05 11:54:26;;;;;;;1999.90;999.90;;;;;;;5.10;89.60;-18046.31;5038419;28;20185;-30
2021/04/05 11:57:13;;;;;;;1999.90;999.90;;;;;;;4.82;85.60;-18038.94;5039551;28;20268;-29
2021/04/05 12:00:02;;;;;;;1999.90;999.90;;;;;;;4.55;86.31;-18031.69;5038746;28;20213;-30
2021/04/05 12:03:00;;;;;;;1999.90;999.90;;;;;;;5.15;95.87;-18047.66;5038154;28;20212;-31
2021/04/05 12:05:58;;;;;;;1999.90;999.90;;;;;;;4.92;100.00;-18041.34;5037530;28;20483;-30
2021/04/05 12:08:50;;;;;;;1999.90;999.90;;;;;;;5.25;100.00;-18050.22;5042113;28;20248;-29
2021/04/05 12:11:44;;;;;;;1999.90;999.90;;;;;;;4.83;100.00;-18039.06;5038685;28;20196;-30
2021/04/05 12:14:32;;;;;;;1999.90;999.90;;;;;;;4.82;100.00;-18038.81;5039327;28;20204;-30
2021/04/05 12:17:20;;;;;;;1999.90;999.90;;;;;;;5.06;100.00;-18045.25;5038849;28;20216;-29
2021/04/05 12:20:08;;;;;;;1999.90;999.90;;;;;;;5.26;99.43;-18050.34;5037989;28;20379;-30
2021/04/05 12:22:57;;;;;;;1999.90;999.90;;;;;;;4.99;93.38;-18043.25;5037367;28;20208;-30
2021/04/05 12:25:46;;;;;;;1999.90;999.90;;;;;;;3.03;100.00;-17991.50;5041711;28;20201;-29
2021/04/05 12:28:38;;;;;;;1999.90;999.90;;;;;;;3.39;100.00;-18000.91;5040578;28;20512;-30
2021/04/05 12:31:31;;;;;;;1999.90;999.90;;;;;;;3.25;100.00;-17997.16;5038322;28;20542;-30
2021/04/05 12:34:17;;;;;;;1999.90;999.90;;;;;;;4.44;97.77;-18028.88;5043859;28;20510;-30
2021/04/05 12:37:13;;;;;;;1999.90;999.90;;;;;;;5.56;82.29;-18058.28;5039788;28;20440;-30